33N weather

Delaware Airpark
Dover/Cheswold, Delaware, United States

Public forecast

Using degrees Fahrenheit for public forecast. Weather courtesy of forecast.io.

METAR (pilot weather report)

Closest report is Dover Air Force Base, 8.1 nm (15.0 km) SE. Retrieved 2019/09/19 19:56 UTC (32 minutes ago):

KDOV 191956Z AUTO 00000KT 10SM CLR 20/09 A3030 RMK AO2 SLP264 T02020085 $

TAF (pilot weather forecast)

Closest forecast is Dover Air Force Base, 8.1 nm (15.0 km) SE. Retrieved 2019/09/19 16:09 UTC (4 hours ago):

TAF KDOV 191603Z 1916/2022 06009KT 9999 FEW040 QNH3029INS BECMG 2002/2003 24006KT 9999 SKC QNH3025INS TX22/1920Z TN11/2010Z